Time;durP1;ratioP1;P1;durP2;ratioP2;P2;SDS_P1;SDS_P2;PMS_P1;PMS_P2;Temp;Humidity;BMP_temperature;BMP_pressure;BME280_temperature;BME280_humidity;BME280_pressure;Samples;Min_cycle;Max_cycle;Signal;HPM_P1;HPM_P2
2022/08/09 00:02:32;;;;;;;1.67;1.57;;;;;;;25.11;61.45;98104.56;5074361;28;20203;-31
2022/08/09 00:04:59;;;;;;;1.23;1.23;;;;;;;25.12;61.54;98106.28;5073275;28;20242;-31
2022/08/09 00:07:46;;;;;;;1.40;1.30;;;;;;;25.05;61.17;98094.97;5075681;28;20579;-31
2022/08/09 00:10:13;;;;;;;1.40;1.30;;;;;;;25.11;61.61;98110.56;5070209;28;20599;-31
2022/08/09 00:12:46;;;;;;;1.50;1.40;;;;;;;25.12;61.69;98108.88;5075458;28;20244;-31
2022/08/09 00:15:18;;;;;;;2.83;1.50;;;;;;;25.11;61.52;98114.84;5075191;28;20204;-31
2022/08/09 00:17:45;;;;;;;1.60;1.50;;;;;;;25.08;61.64;98113.06;5078426;28;20562;-31
2022/08/09 00:20:31;;;;;;;1.50;1.40;;;;;;;25.11;61.23;98110.56;5073886;28;20220;-31
2022/08/09 00:22:59;;;;;;;2.10;1.50;;;;;;;25.11;61.38;98118.28;5077416;28;20196;-31
2022/08/09 00:25:46;;;;;;;1.50;1.40;;;;;;;25.11;61.70;98115.69;5072797;28;20457;-31
2022/08/09 00:28:18;;;;;;;1.27;1.27;;;;;;;25.11;61.53;98113.13;5075565;28;20196;-31
2022/08/09 00:30:51;;;;;;;1.40;1.30;;;;;;;25.10;61.50;98116.53;5077564;28;20270;-31
2022/08/09 00:33:17;;;;;;;1.40;1.30;;;;;;;25.11;61.57;98120.00;5072750;28;20231;-31
2022/08/09 00:35:59;;;;;;;1.60;1.50;;;;;;;25.11;61.23;98122.56;5065731;28;20199;-31
2022/08/09 00:38:26;;;;;;;1.47;1.37;;;;;;;25.08;61.69;98115.63;5071750;28;20231;-31
2022/08/09 00:40:53;;;;;;;1.50;1.40;;;;;;;25.11;61.74;98120.84;5073757;28;20299;-31
2022/08/09 00:43:23;;;;;;;1.63;1.53;;;;;;;25.10;61.78;98116.53;5071133;28;20200;-31
2022/08/09 00:46:10;;;;;;;1.60;1.40;;;;;;;25.10;61.27;98113.97;5074707;28;20203;-31
2022/08/09 00:48:53;;;;;;;1.50;1.40;;;;;;;25.10;61.34;98115.66;5074611;28;20288;-31
2022/08/09 00:51:21;;;;;;;1.60;1.50;;;;;;;25.06;61.80;98111.28;5067057;28;20197;-31
2022/08/09 00:53:51;;;;;;;1.50;1.40;;;;;;;25.03;61.51;98104.38;5071296;28;20484;-31
2022/08/09 00:56:18;;;;;;;1.57;1.47;;;;;;;25.11;61.54;98120.00;5052642;28;20209;-31
2022/08/09 00:58:44;;;;;;;1.40;1.30;;;;;;;25.10;61.61;98124.25;5068975;28;20208;-31
2022/08/09 01:01:20;;;;;;;1.53;1.43;;;;;;;25.07;61.62;98125.88;5066956;28;20338;-31
2022/08/09 01:03:53;;;;;;;1.40;1.30;;;;;;;25.10;61.75;98128.53;5073383;28;20720;-31
2022/08/09 01:06:49;;;;;;;1.60;1.50;;;;;;;25.10;61.63;98124.25;5072597;28;20204;-31
2022/08/09 01:09:27;;;;;;;1.40;1.30;;;;;;;25.10;61.31;98124.25;5073625;28;20287;-31
2022/08/09 01:12:02;;;;;;;1.60;1.50;;;;;;;25.10;61.75;98129.41;5072147;28;20200;-31
2022/08/09 01:14:59;;;;;;;1.40;1.30;;;;;;;25.09;61.31;98125.09;5074380;28;20625;-31
2022/08/09 01:18:03;;;;;;;1.50;1.40;;;;;;;25.10;61.67;98125.94;5068421;28;20203;-31
2022/08/09 01:20:58;;;;;;;1.73;1.63;;;;;;;25.10;61.77;98131.97;5068683;28;20251;-31
2022/08/09 01:23:43;;;;;;;1.50;1.40;;;;;;;25.09;61.86;98127.69;5071733;28;20235;-31
2022/08/09 01:26:38;;;;;;;1.60;1.50;;;;;;;25.09;61.40;98125.09;5073542;28;20200;-31
2022/08/09 01:29:05;;;;;;;1.60;1.50;;;;;;;25.04;61.75;98121.53;5074484;28;20287;-31
2022/08/09 01:31:33;;;;;;;1.50;1.40;;;;;;;25.08;61.77;98132.78;5056320;28;20341;-31
2022/08/09 01:34:19;;;;;;;1.70;1.60;;;;;;;25.03;61.32;98117.25;5066632;28;20192;-31
2022/08/09 01:36:47;;;;;;;2.63;1.40;;;;;;;25.10;61.90;98125.94;5055244;28;20196;-31
2022/08/09 01:39:13;;;;;;;1.50;1.40;;;;;;;25.09;61.46;98132.81;5071610;28;20212;-31
2022/08/09 01:41:41;;;;;;;1.70;1.60;;;;;;;25.10;61.68;98128.53;5056095;28;20204;-31
2022/08/09 01:44:21;;;;;;;1.60;1.50;;;;;;;25.09;61.22;98127.69;5066780;28;20223;-31
2022/08/09 01:46:48;;;;;;;1.30;1.30;;;;;;;25.09;61.71;98126.78;5055843;28;20200;-31
2022/08/09 01:49:19;;;;;;;1.50;1.40;;;;;;;25.09;61.71;98130.25;5055673;28;20228;-31
2022/08/09 01:51:58;;;;;;;1.57;1.47;;;;;;;25.10;61.29;98131.09;5072162;28;20250;-31
2022/08/09 01:54:38;;;;;;;1.47;1.37;;;;;;;25.04;61.58;98116.41;5066090;28;20249;-31
2022/08/09 01:57:09;;;;;;;1.40;1.30;;;;;;;25.09;61.47;98130.25;5069971;28;20231;-31
2022/08/09 01:59:41;;;;;;;1.27;1.20;;;;;;;25.10;61.81;98134.53;5062858;28;20600;-31
2022/08/09 02:02:20;;;;;;;1.57;1.47;;;;;;;25.10;61.54;98134.53;5045806;28;20196;-31
2022/08/09 02:04:47;;;;;;;1.53;1.43;;;;;;;25.09;61.63;98132.81;5064757;28;20216;-31
2022/08/09 02:07:15;;;;;;;1.80;1.70;;;;;;;25.10;61.63;98131.97;5051848;28;20208;-31
2022/08/09 02:10:15;;;;;;;1.47;1.37;;;;;;;25.10;61.52;98131.09;5067644;28;20219;-31
2022/08/09 02:12:43;;;;;;;1.33;1.23;;;;;;;25.09;61.32;98135.38;5056978;28;20287;-31
2022/08/09 02:15:10;;;;;;;1.60;1.50;;;;;;;25.10;61.65;98131.09;5067467;28;20631;-32
2022/08/09 02:17:43;;;;;;;1.40;1.30;;;;;;;25.10;61.61;98131.97;5061443;28;20207;-31
2022/08/09 02:20:31;;;;;;;1.47;1.40;;;;;;;25.09;61.68;98127.69;5051657;28;20221;-31
2022/08/09 02:22:59;;;;;;;1.47;1.37;;;;;;;25.09;61.56;98131.94;5068064;28;20200;-30
2022/08/09 02:25:27;;;;;;;1.47;1.37;;;;;;;25.04;61.75;98121.53;5072217;28;20358;-31
2022/08/09 02:28:13;;;;;;;1.70;1.60;;;;;;;25.09;61.72;98137.09;5053409;28;20346;-31
2022/08/09 02:30:50;;;;;;;1.50;1.40;;;;;;;25.05;61.98;98135.28;5069288;28;20259;-31
2022/08/09 02:33:20;;;;;;;2.80;1.37;;;;;;;25.09;61.41;98137.97;5059425;28;20196;-31
2022/08/09 02:35:48;;;;;;;1.50;1.40;;;;;;;25.02;61.49;98125.75;5062250;28;20204;-31
2022/08/09 02:38:35;;;;;;;1.40;1.30;;;;;;;25.07;61.82;98131.03;5057522;28;20288;-31
2022/08/09 02:41:08;;;;;;;1.50;1.40;;;;;;;24.99;61.77;98115.41;5053403;28;20315;-31
2022/08/09 02:43:35;;;;;;;1.60;1.50;;;;;;;25.09;61.76;98137.97;5055236;28;20678;-31
2022/08/09 02:46:21;;;;;;;1.50;1.40;;;;;;;25.02;61.34;98125.75;5057336;28;20600;-31
2022/08/09 02:48:50;;;;;;;1.47;1.37;;;;;;;25.09;61.71;98142.22;5055220;28;20243;-31
2022/08/09 02:51:17;;;;;;;1.70;1.60;;;;;;;25.05;61.82;98127.56;5072425;28;20227;-31
2022/08/09 02:53:47;;;;;;;1.30;1.30;;;;;;;25.09;61.79;98140.53;5071018;28;20469;-31
2022/08/09 02:56:26;;;;;;;1.73;1.40;;;;;;;24.99;61.72;98124.84;5055517;28;20215;-31
2022/08/09 02:58:53;;;;;;;1.40;1.30;;;;;;;24.99;61.72;98119.69;5070805;28;20204;-31
2022/08/09 03:01:20;;;;;;;1.50;1.40;;;;;;;25.09;61.82;98139.66;5038595;22;20225;-23
2022/08/09 03:04:07;;;;;;;1.33;1.23;;;;;;;25.04;61.54;98125.81;5018466;28;20194;-23
2022/08/09 03:06:45;;;;;;;1.70;1.60;;;;;;;25.09;61.65;98135.38;5005060;28;20251;-23
2022/08/09 03:09:14;;;;;;;1.63;1.53;;;;;;;25.08;61.65;98138.78;5020204;28;20221;-22
2022/08/09 03:11:42;;;;;;;1.50;1.40;;;;;;;25.10;61.62;98142.25;5028883;28;20597;-22
2022/08/09 03:14:30;;;;;;;1.47;1.37;;;;;;;25.09;61.64;98145.69;5013165;28;20201;-22
2022/08/09 03:16:58;;;;;;;1.50;1.40;;;;;;;24.91;61.66;98111.78;5031269;28;20571;-22
2022/08/09 03:19:28;;;;;;;1.40;1.30;;;;;;;24.97;61.74;98126.50;5013428;28;20217;-22
2022/08/09 03:22:14;;;;;;;1.60;1.50;;;;;;;24.89;61.62;98110.88;5015565;28;20207;-22
2022/08/09 03:24:51;;;;;;;1.20;1.20;;;;;;;24.86;61.63;98110.78;5019088;28;20231;-22
2022/08/09 03:27:37;;;;;;;1.37;1.30;;;;;;;25.04;61.56;98136.09;5031427;28;20208;-22
2022/08/09 03:30:11;;;;;;;1.50;1.40;;;;;;;25.09;61.60;98147.38;5033189;28;20248;-23
2022/08/09 03:32:38;;;;;;;1.57;1.47;;;;;;;25.09;61.99;98144.81;5032274;28;20715;-22
2022/08/09 03:35:04;;;;;;;1.40;1.30;;;;;;;25.09;61.62;98145.69;5015660;28;20220;-23
2022/08/09 03:37:51;;;;;;;1.40;1.33;;;;;;;25.09;61.87;98143.09;5048202;28;20651;-22
2022/08/09 03:40:22;;;;;;;1.40;1.30;;;;;;;25.08;61.79;98141.34;5049882;28;20231;-23
2022/08/09 03:42:50;;;;;;;1.60;1.50;;;;;;;25.09;61.49;98145.69;5048874;28;20197;-22
2022/08/09 03:45:16;;;;;;;1.50;1.40;;;;;;;25.09;61.68;98152.50;5042743;28;20212;-22
2022/08/09 03:48:03;;;;;;;1.43;1.33;;;;;;;25.09;61.83;98152.50;5050182;28;20583;-23
2022/08/09 03:50:30;;;;;;;1.50;1.40;;;;;;;25.08;61.63;98156.78;5049710;28;20274;-22
2022/08/09 03:52:59;;;;;;;1.43;1.33;;;;;;;25.09;62.02;98155.09;5026764;28;20206;-22
2022/08/09 03:55:25;;;;;;;1.30;1.30;;;;;;;25.04;61.65;98146.38;5049248;28;20287;-23
2022/08/09 03:57:56;;;;;;;1.60;1.50;;;;;;;25.09;61.97;98165.38;5014169;28;20618;-22
2022/08/09 04:00:45;;;;;;;1.30;1.30;;;;;;;25.08;61.77;98154.22;5035019;28;20239;-23
2022/08/09 04:03:13;;;;;;;1.50;1.40;;;;;;;25.09;62.02;98175.66;5011488;28;20227;-22
2022/08/09 04:06:00;;;;;;;1.60;1.40;;;;;;;25.04;61.54;98160.13;5013586;28;20229;-21
2022/08/09 04:08:30;;;;;;;1.50;1.40;;;;;;;25.09;61.43;98165.38;5030382;28;20201;-22
2022/08/09 04:10:58;;;;;;;1.50;1.40;;;;;;;25.08;61.66;98166.22;5048054;28;20776;-23
2022/08/09 04:13:27;;;;;;;1.40;1.30;;;;;;;25.09;61.46;98167.94;5047738;28;20227;-23
2022/08/09 04:16:14;;;;;;;1.60;1.50;;;;;;;25.08;61.62;98169.63;5046979;28;20577;-22
2022/08/09 04:18:46;;;;;;;1.50;1.40;;;;;;;25.08;61.80;98171.38;5050798;28;20205;-22
2022/08/09 04:21:16;;;;;;;1.33;1.30;;;;;;;25.08;61.83;98171.38;5048095;28;20212;-22
2022/08/09 04:23:42;;;;;;;1.60;1.50;;;;;;;25.08;61.41;98168.78;5049506;28;20288;-22
2022/08/09 04:26:19;;;;;;;1.47;1.37;;;;;;;25.08;61.91;98173.94;5045008;28;20274;-23
2022/08/09 04:28:48;;;;;;;1.50;1.40;;;;;;;25.08;61.61;98179.09;5045778;28;20468;-23
2022/08/09 04:31:15;;;;;;;1.70;1.60;;;;;;;25.08;61.69;98176.50;5050515;28;20308;-22
2022/08/09 04:33:41;;;;;;;1.20;1.20;;;;;;;25.02;61.40;98169.47;5045325;28;20231;-23
2022/08/09 04:36:20;;;;;;;2.93;1.50;;;;;;;25.08;61.62;98187.66;5045458;28;20193;-22
2022/08/09 04:38:48;;;;;;;1.57;1.47;;;;;;;25.08;61.54;98184.22;5050595;28;20285;-22
2022/08/09 04:41:15;;;;;;;1.60;1.50;;;;;;;25.08;61.49;98189.38;5046740;28;20252;-22
2022/08/09 04:43:42;;;;;;;1.50;1.40;;;;;;;25.08;62.06;98194.50;5046540;28;20201;-22
2022/08/09 04:46:29;;;;;;;1.40;1.30;;;;;;;25.09;61.51;98194.56;5048381;28;20227;-22
2022/08/09 04:49:16;;;;;;;1.60;1.50;;;;;;;25.07;61.85;98201.34;5047970;28;20211;-22
2022/08/09 04:51:55;;;;;;;1.70;1.60;;;;;;;25.08;61.74;98203.06;5043388;28;20237;-22
2022/08/09 04:54:22;;;;;;;1.20;1.20;;;;;;;25.08;61.72;98205.66;5043817;28;20235;-23
2022/08/09 04:56:49;;;;;;;1.47;1.37;;;;;;;25.07;61.75;98203.91;5052383;28;20238;-23
2022/08/09 04:59:15;;;;;;;1.50;1.40;;;;;;;25.09;61.71;98201.38;5052794;28;20201;-22
2022/08/09 05:01:46;;;;;;;1.70;1.60;;;;;;;25.09;61.78;98203.97;5051803;28;20209;-22
2022/08/09 05:04:13;;;;;;;1.30;1.30;;;;;;;25.09;61.41;98203.97;5052246;28;20243;-23
2022/08/09 05:06:39;;;;;;;1.50;1.40;;;;;;;25.08;61.82;98203.06;5052165;28;20225;-23
2022/08/09 05:09:09;;;;;;;1.60;1.50;;;;;;;25.09;61.92;98203.97;5050836;28;20725;-22
2022/08/09 05:11:37;;;;;;;1.30;1.30;;;;;;;25.09;61.83;98201.38;5052287;28;20221;-22
2022/08/09 05:14:04;;;;;;;1.70;1.60;;;;;;;25.08;61.10;98208.22;5051219;28;20247;-22
2022/08/09 05:16:33;;;;;;;3.07;2.20;;;;;;;25.09;58.05;98219.41;5051915;28;20200;-22
2022/08/09 05:19:20;;;;;;;3.47;2.40;;;;;;;25.08;56.11;98209.94;5051521;28;20211;-23
2022/08/09 05:21:51;;;;;;;3.67;2.60;;;;;;;25.07;55.21;98211.63;5049317;28;20205;-22
2022/08/09 05:24:22;;;;;;;4.87;2.83;;;;;;;25.05;54.59;98208.16;5051287;28;20242;-22
2022/08/09 05:26:49;;;;;;;4.33;3.03;;;;;;;25.05;54.11;98212.44;5050671;28;20216;-21
2022/08/09 05:29:18;;;;;;;5.93;2.90;;;;;;;25.04;53.76;98213.25;5052038;28;20232;-22
2022/08/09 05:31:48;;;;;;;5.40;2.87;;;;;;;25.02;54.28;98213.22;5051843;28;20295;-22
2022/08/09 05:34:26;;;;;;;3.87;2.53;;;;;;;24.90;55.17;98206.91;5052244;28;20288;-22
2022/08/09 05:36:59;;;;;;;3.87;2.73;;;;;;;24.98;55.72;98219.13;5051304;28;20203;-23
2022/08/09 05:39:27;;;;;;;3.33;2.70;;;;;;;25.01;55.64;98231.16;5052097;28;20205;-23
2022/08/09 05:42:08;;;;;;;4.00;2.60;;;;;;;25.02;56.42;98227.78;5049486;28;20214;-22
2022/08/09 05:44:43;;;;;;;3.93;2.40;;;;;;;24.89;56.37;98208.59;5051971;28;20633;-22
2022/08/09 05:47:13;;;;;;;4.47;2.60;;;;;;;25.02;56.65;98225.22;5049143;28;20217;-23
2022/08/09 05:49:39;;;;;;;3.80;3.00;;;;;;;25.02;57.05;98222.66;5051592;28;20266;-22
2022/08/09 05:52:26;;;;;;;3.13;2.30;;;;;;;25.02;57.10;98222.66;5050681;28;20204;-22
2022/08/09 05:54:57;;;;;;;4.37;2.70;;;;;;;25.02;56.99;98222.66;5051298;28;20257;-23
2022/08/09 05:57:33;;;;;;;4.50;2.60;;;;;;;25.03;57.35;98224.38;5051758;28;20306;-23
2022/08/09 06:00:20;;;;;;;4.80;2.70;;;;;;;25.03;57.47;98220.13;5048749;28;20230;-23
2022/08/09 06:02:47;;;;;;;2.63;2.43;;;;;;;25.02;57.45;98226.06;5051825;28;20193;-22
2022/08/09 06:05:14;;;;;;;2.90;2.23;;;;;;;25.02;57.04;98225.22;5050548;28;20577;-23
2022/08/09 06:07:41;;;;;;;8.07;2.80;;;;;;;25.03;57.12;98226.94;5046892;28;20261;-22
2022/08/09 06:10:08;;;;;;;2.60;2.20;;;;;;;24.99;57.84;98220.00;5044293;28;20300;-23
2022/08/09 06:12:43;;;;;;;2.40;2.20;;;;;;;25.03;57.40;98232.97;5051196;28;20235;-23
2022/08/09 06:15:16;;;;;;;3.83;2.37;;;;;;;25.03;57.48;98238.13;5050240;28;20203;-22
2022/08/09 06:17:42;;;;;;;2.20;2.00;;;;;;;25.03;57.60;98230.41;5051312;28;20617;-22
2022/08/09 06:20:12;;;;;;;2.37;2.13;;;;;;;25.04;57.77;98236.41;5051543;28;20221;-23
2022/08/09 06:22:43;;;;;;;4.47;2.40;;;;;;;25.04;57.79;98242.41;5047835;28;20299;-22
2022/08/09 06:25:11;;;;;;;3.60;2.60;;;;;;;25.05;57.37;98246.72;5050597;28;20632;-21
2022/08/09 06:27:41;;;;;;;3.77;2.17;;;;;;;25.05;56.88;98243.31;5049399;28;20204;-22
2022/08/09 06:30:17;;;;;;;3.63;2.17;;;;;;;25.05;56.65;98239.00;5048277;28;20217;-23
2022/08/09 06:32:44;;;;;;;4.83;2.70;;;;;;;25.06;56.98;98242.47;5051148;28;20205;-22
2022/08/09 06:35:30;;;;;;;2.90;2.20;;;;;;;25.06;57.35;98247.59;5048425;28;20203;-22
2022/08/09 06:38:17;;;;;;;2.47;2.10;;;;;;;25.06;57.88;98238.19;5046013;28;20682;-22
2022/08/09 06:40:44;;;;;;;2.40;2.17;;;;;;;25.01;57.71;98238.88;5051038;28;20225;-22
2022/08/09 06:43:12;;;;;;;3.47;1.97;;;;;;;25.08;58.29;98246.81;5044040;28;20596;-23
2022/08/09 06:45:39;;;;;;;2.17;2.00;;;;;;;25.08;57.95;98249.38;5032833;28;20227;-23
2022/08/09 06:48:25;;;;;;;2.43;2.10;;;;;;;25.08;58.33;98251.94;5049871;28;20201;-23
2022/08/09 06:50:57;;;;;;;3.00;2.30;;;;;;;25.02;57.97;98235.50;5050705;28;20223;-23
2022/08/09 06:53:24;;;;;;;2.83;2.10;;;;;;;25.08;57.96;98251.94;5050148;28;20203;-22
2022/08/09 06:55:51;;;;;;;2.40;2.20;;;;;;;25.09;58.55;98247.69;5051273;28;20197;-22
2022/08/09 06:58:18;;;;;;;3.10;2.10;;;;;;;25.10;58.75;98259.72;5050631;28;20727;-22
2022/08/09 07:01:04;;;;;;;2.23;2.03;;;;;;;25.10;58.13;98254.56;5049999;28;20262;-23
2022/08/09 07:03:33;;;;;;;2.00;1.90;;;;;;;25.10;58.84;98247.72;5031363;28;20193;-23
2022/08/09 07:06:18;;;;;;;2.57;2.00;;;;;;;25.09;58.57;98251.16;5041307;28;20308;-22
2022/08/09 07:08:45;;;;;;;2.07;1.87;;;;;;;25.06;58.74;98253.63;5048267;28;20232;-21
2022/08/09 07:11:12;;;;;;;2.50;2.30;;;;;;;25.10;58.37;98254.56;5033113;28;20308;-22
2022/08/09 07:13:48;;;;;;;2.17;1.93;;;;;;;25.11;58.85;98264.03;5048324;28;20197;-23
2022/08/09 07:16:32;;;;;;;2.20;2.00;;;;;;;25.11;58.60;98269.19;5041393;28;20207;-22
2022/08/09 07:19:15;;;;;;;3.47;2.10;;;;;;;25.10;58.77;98262.28;5045235;28;20623;-23
2022/08/09 07:21:44;;;;;;;2.50;2.07;;;;;;;25.10;58.93;98263.16;5050136;28;20209;-22
2022/08/09 07:24:29;;;;;;;2.27;2.07;;;;;;;25.11;58.73;98264.03;5049778;28;20293;-22
2022/08/09 07:27:06;;;;;;;2.23;1.80;;;;;;;25.10;59.14;98268.31;5049690;28;20226;-23
2022/08/09 07:29:53;;;;;;;2.40;1.90;;;;;;;25.11;59.25;98267.47;5041357;28;20660;-23
2022/08/09 07:32:22;;;;;;;2.20;2.00;;;;;;;25.10;59.09;98270.88;5043810;28;20581;-23
2022/08/09 07:34:59;;;;;;;2.33;1.97;;;;;;;25.11;58.85;98272.63;5046163;28;20211;-22
2022/08/09 07:37:28;;;;;;;1.97;1.87;;;;;;;25.11;59.33;98272.63;5045493;28;20201;-22
2022/08/09 07:39:54;;;;;;;4.13;2.03;;;;;;;25.11;58.88;98269.19;5040756;28;20770;-22
2022/08/09 07:42:22;;;;;;;2.17;1.80;;;;;;;25.05;58.91;98257.00;5045835;28;20228;-23
2022/08/09 07:44:58;;;;;;;2.27;1.90;;;;;;;25.12;59.08;98265.78;5039614;28;20204;-24
2022/08/09 07:47:31;;;;;;;2.23;1.97;;;;;;;25.10;59.35;98265.75;5044793;28;20626;-22
2022/08/09 07:50:21;;;;;;;1.83;1.73;;;;;;;25.11;59.40;98261.47;5044696;28;20713;-22
2022/08/09 07:53:02;;;;;;;1.93;1.83;;;;;;;25.11;59.33;98269.19;5031753;28;20258;-22
2022/08/09 07:55:30;;;;;;;1.70;1.60;;;;;;;25.09;59.29;98268.28;5047209;28;20208;-23
2022/08/09 07:58:17;;;;;;;2.13;2.03;;;;;;;25.11;59.37;98269.19;5045293;28;20655;-22
2022/08/09 08:00:51;;;;;;;1.90;1.80;;;;;;;25.11;59.18;98267.47;5033033;28;20319;-22
2022/08/09 08:03:32;;;;;;;2.00;1.90;;;;;;;25.11;59.63;98266.63;5048712;28;20204;-23
2022/08/09 08:06:03;;;;;;;2.00;1.90;;;;;;;25.10;59.33;98265.75;5048737;28;20224;-21
2022/08/09 08:08:29;;;;;;;1.77;1.67;;;;;;;25.11;59.40;98269.19;5044572;28;20575;-23
2022/08/09 08:11:16;;;;;;;1.90;1.70;;;;;;;25.11;59.54;98266.63;5047020;28;20247;-23
2022/08/09 08:14:02;;;;;;;1.87;1.77;;;;;;;25.13;59.44;98266.66;5044031;28;20201;-22
2022/08/09 08:16:32;;;;;;;1.80;1.70;;;;;;;25.06;59.16;98258.78;5047136;28;20205;-22
2022/08/09 08:19:00;;;;;;;1.93;1.83;;;;;;;25.11;59.25;98271.75;5043903;28;20706;-23
2022/08/09 08:21:29;;;;;;;1.90;1.70;;;;;;;25.01;59.32;98251.75;5040883;28;20641;-22
2022/08/09 08:23:55;;;;;;;1.60;1.50;;;;;;;25.11;59.33;98272.63;5043889;28;20258;-22
2022/08/09 08:26:22;;;;;;;2.30;2.00;;;;;;;25.11;59.33;98274.34;5047759;28;20338;-22
2022/08/09 08:29:08;;;;;;;1.90;1.80;;;;;;;24.93;59.66;98243.81;5047687;28;20655;-23
2022/08/09 08:31:35;;;;;;;2.07;1.90;;;;;;;25.11;59.39;98271.75;5045322;28;20678;-21
2022/08/09 08:34:21;;;;;;;2.17;1.70;;;;;;;25.11;59.76;98274.34;5047940;28;20216;-22
2022/08/09 08:36:51;;;;;;;1.80;1.70;;;;;;;25.11;59.76;98271.75;5031653;28;20293;-22
2022/08/09 08:39:17;;;;;;;1.87;1.77;;;;;;;25.11;60.02;98272.63;5048535;28;20251;-22
2022/08/09 08:41:47;;;;;;;1.70;1.60;;;;;;;24.98;59.68;98251.66;5042568;28;20627;-22
2022/08/09 08:44:20;;;;;;;1.87;1.77;;;;;;;25.04;60.01;98268.16;5011476;28;20589;-22
2022/08/09 08:46:56;;;;;;;1.90;1.80;;;;;;;25.10;59.59;98275.16;5017742;28;20246;-23
2022/08/09 08:49:39;;;;;;;2.00;1.80;;;;;;;25.10;59.95;98267.44;5043805;28;20224;-23
2022/08/09 08:52:24;;;;;;;2.00;1.90;;;;;;;25.11;59.74;98275.19;5030252;28;20576;-21
2022/08/09 08:55:12;;;;;;;1.90;1.80;;;;;;;25.11;59.81;98274.34;5046367;28;20469;-22
2022/08/09 08:57:45;;;;;;;1.90;1.80;;;;;;;25.12;59.73;98278.63;5038679;28;20211;-21
2022/08/09 09:00:23;;;;;;;1.80;1.70;;;;;;;25.11;59.61;98267.47;5053710;22;20226;-31
2022/08/09 09:02:57;;;;;;;1.70;1.60;;;;;;;25.11;60.16;98266.63;5075406;28;20218;-31
2022/08/09 09:05:33;;;;;;;1.70;1.60;;;;;;;25.07;60.04;98264.78;5075845;28;20215;-31
2022/08/09 09:08:20;;;;;;;2.10;1.90;;;;;;;25.08;60.05;98259.66;5073915;28;20203;-31
2022/08/09 09:10:58;;;;;;;2.00;1.90;;;;;;;25.10;60.40;98259.72;5060533;28;20247;-31
2022/08/09 09:13:25;;;;;;;1.90;1.80;;;;;;;25.10;59.94;98270.88;5049685;28;20287;-31
2022/08/09 09:16:11;;;;;;;1.90;1.70;;;;;;;25.11;59.96;98256.31;5047020;28;20574;-32
2022/08/09 09:18:40;;;;;;;1.50;1.40;;;;;;;25.09;59.90;98266.56;5059986;28;20228;-31
2022/08/09 09:21:14;;;;;;;1.67;1.57;;;;;;;25.09;59.73;98264.00;5059291;28;20224;-31
2022/08/09 09:23:44;;;;;;;1.97;1.77;;;;;;;25.10;59.79;98257.13;5061391;28;20276;-31
2022/08/09 09:26:22;;;;;;;1.97;1.87;;;;;;;25.10;60.19;98252.88;5055924;28;20248;-31
2022/08/09 09:28:51;;;;;;;1.90;1.80;;;;;;;25.10;59.78;98252.88;5057168;28;20207;-31
2022/08/09 09:31:38;;;;;;;1.70;1.60;;;;;;;25.10;59.96;98258.03;5061671;28;20236;-31
2022/08/09 09:34:24;;;;;;;1.60;1.50;;;;;;;25.10;59.88;98252.00;5056956;28;20205;-31
2022/08/09 09:36:54;;;;;;;1.90;1.80;;;;;;;25.09;59.88;98253.72;5060315;28;20283;-31
2022/08/09 09:39:22;;;;;;;1.97;1.87;;;;;;;25.05;59.88;98245.88;5059798;28;20738;-31
2022/08/09 09:42:08;;;;;;;1.70;1.60;;;;;;;25.11;59.77;98256.31;5061571;28;20200;-31
2022/08/09 09:44:39;;;;;;;1.77;1.60;;;;;;;25.11;59.89;98264.91;5053079;28;20208;-31
2022/08/09 09:47:09;;;;;;;1.60;1.50;;;;;;;25.10;60.44;98252.88;5057579;28;20231;-31
2022/08/09 09:49:37;;;;;;;1.53;1.43;;;;;;;25.13;60.42;98264.09;5065463;28;20287;-31
2022/08/09 09:52:23;;;;;;;2.13;1.77;;;;;;;25.13;59.87;98261.50;5056560;28;20220;-31
2022/08/09 09:55:10;;;;;;;1.70;1.60;;;;;;;25.14;60.35;98261.56;5064345;28;20286;-31
2022/08/09 09:57:58;;;;;;;1.80;1.70;;;;;;;25.15;60.37;98255.56;5067979;28;20498;-31
2022/08/09 10:00:30;;;;;;;1.80;1.70;;;;;;;25.17;59.89;98253.03;5069360;28;20227;-31
2022/08/09 10:02:59;;;;;;;1.70;1.60;;;;;;;25.15;60.38;98250.44;5067695;28;20254;-31
2022/08/09 10:05:34;;;;;;;1.70;1.60;;;;;;;25.16;60.39;98254.72;5064871;28;20655;-31
2022/08/09 10:08:22;;;;;;;1.70;1.60;;;;;;;25.18;60.15;98240.22;5068599;28;20231;-31
2022/08/09 10:10:54;;;;;;;1.70;1.60;;;;;;;25.18;60.07;98247.94;5067231;28;20217;-31
2022/08/09 10:13:21;;;;;;;1.60;1.50;;;;;;;25.13;60.28;98240.94;5065798;28;20215;-31
2022/08/09 10:16:07;;;;;;;1.60;1.50;;;;;;;25.11;60.00;98228.88;5066499;28;20207;-31
2022/08/09 10:18:54;;;;;;;1.83;1.73;;;;;;;25.19;59.98;98249.66;5053166;28;20211;-31
2022/08/09 10:21:25;;;;;;;1.80;1.70;;;;;;;25.20;60.20;98254.00;5066785;28;20224;-31
2022/08/09 10:23:52;;;;;;;1.57;1.47;;;;;;;25.20;60.26;98242.81;5066588;28;20296;-31
2022/08/09 10:26:20;;;;;;;1.73;1.63;;;;;;;25.21;60.04;98237.72;5068114;28;20236;-31
2022/08/09 10:28:50;;;;;;;2.07;1.70;;;;;;;25.22;60.08;98236.88;5064277;28;20209;-31
2022/08/09 10:31:37;;;;;;;1.67;1.57;;;;;;;25.19;60.27;98225.66;5068313;28;20226;-31
2022/08/09 10:34:24;;;;;;;1.70;1.60;;;;;;;25.18;60.29;98222.22;5054498;28;20205;-31
2022/08/09 10:36:58;;;;;;;1.90;1.70;;;;;;;25.19;59.78;98225.66;5062050;28;20257;-31
2022/08/09 10:39:25;;;;;;;1.77;1.67;;;;;;;25.24;59.84;98231.78;5066563;28;20379;-31
2022/08/09 10:41:54;;;;;;;2.70;1.87;;;;;;;25.14;60.09;98212.69;5064486;28;20650;-31
2022/08/09 10:44:21;;;;;;;1.83;1.73;;;;;;;25.22;59.88;98221.44;5068643;28;20228;-31
2022/08/09 10:47:24;;;;;;;2.03;1.93;;;;;;;25.26;60.14;98217.25;5064405;28;20216;-31
2022/08/09 10:50:27;;;;;;;2.37;1.90;;;;;;;25.23;60.23;98219.75;5068081;28;20463;-31
2022/08/09 10:53:04;;;;;;;1.80;1.70;;;;;;;25.26;60.11;98218.13;5064707;28;20770;-31
2022/08/09 10:55:36;;;;;;;1.90;1.80;;;;;;;25.26;59.78;98218.13;5058736;28;20662;-31
2022/08/09 10:58:30;;;;;;;2.07;1.90;;;;;;;25.28;60.32;98218.19;5059213;28;20214;-31
2022/08/09 11:00:59;;;;;;;1.90;1.80;;;;;;;25.22;59.80;98202.59;5061451;28;20223;-31
2022/08/09 11:04:07;;;;;;;1.90;1.80;;;;;;;25.28;60.17;98211.31;5066681;28;20200;-31
2022/08/09 11:06:57;;;;;;;1.90;1.80;;;;;;;25.29;60.21;98214.75;5064366;28;20220;-31
2022/08/09 11:09:52;;;;;;;1.93;1.80;;;;;;;25.29;60.12;98212.19;5067300;28;20207;-31
2022/08/09 11:12:27;;;;;;;1.80;1.70;;;;;;;25.29;60.34;98212.19;5062473;28;20285;-31
2022/08/09 11:15:01;;;;;;;1.90;1.80;;;;;;;25.28;59.93;98208.72;5069101;28;20218;-31
2022/08/09 11:17:31;;;;;;;1.77;1.67;;;;;;;25.30;59.78;98216.50;5070020;28;20238;-31
2022/08/09 11:19:58;;;;;;;1.80;1.70;;;;;;;25.30;59.94;98212.22;5064103;28;20223;-31
2022/08/09 11:22:46;;;;;;;2.07;1.97;;;;;;;25.30;60.20;98203.63;5065786;28;20206;-32
2022/08/09 11:25:21;;;;;;;1.80;1.70;;;;;;;25.28;60.38;98213.88;5063988;28;20591;-31
2022/08/09 11:27:53;;;;;;;1.73;1.63;;;;;;;25.32;60.07;98215.75;5064595;28;20224;-31
2022/08/09 11:30:34;;;;;;;1.77;1.67;;;;;;;25.28;59.96;98206.16;5066693;28;20710;-31
2022/08/09 11:33:28;;;;;;;1.83;1.73;;;;;;;25.32;59.49;98218.31;5068071;28;20610;-31
2022/08/09 11:35:59;;;;;;;1.83;1.73;;;;;;;25.31;59.71;98210.53;5069077;28;20214;-31
2022/08/09 11:38:30;;;;;;;2.10;1.90;;;;;;;25.31;59.77;98216.53;5062930;28;20200;-31
2022/08/09 11:41:12;;;;;;;1.77;1.67;;;;;;;25.33;59.65;98209.75;5058186;28;20286;-31
2022/08/09 11:43:46;;;;;;;2.93;2.00;;;;;;;25.31;59.80;98201.09;5060553;28;20207;-31
2022/08/09 11:46:13;;;;;;;2.17;1.77;;;;;;;25.34;59.82;98205.50;5062929;28;20231;-31
2022/08/09 11:48:58;;;;;;;1.80;1.70;;;;;;;25.27;59.93;98186.41;5055169;28;20287;-31
2022/08/09 11:51:26;;;;;;;1.87;1.67;;;;;;;25.34;59.64;98202.94;5057945;28;20343;-31
2022/08/09 11:54:17;;;;;;;1.80;1.70;;;;;;;25.31;59.83;98195.09;5063396;28;20212;-31
2022/08/09 11:57:37;;;;;;;1.70;1.60;;;;;;;25.36;59.69;98203.81;5066288;28;20202;-31
2022/08/09 12:00:24;;;;;;;2.00;1.90;;;;;;;25.36;59.89;98203.81;5059868;28;20232;-31
2022/08/09 12:02:54;;;;;;;2.03;1.93;;;;;;;25.30;59.93;98193.34;5062808;28;20212;-31
2022/08/09 12:05:21;;;;;;;1.80;1.70;;;;;;;25.35;59.78;98202.06;5059876;28;20207;-31
2022/08/09 12:07:48;;;;;;;1.70;1.60;;;;;;;25.31;59.95;98192.53;5057292;28;20246;-31
2022/08/09 12:10:18;;;;;;;2.03;1.53;;;;;;;25.36;59.73;98202.13;5056211;28;20857;-31
2022/08/09 12:13:04;;;;;;;1.87;1.50;;;;;;;25.36;59.90;98190.94;5053267;28;20200;-31